Terminal Aerodrome Forecast
Issued by NWS Northern Indiana

Home | Current Version | Previous Version | Text Only | Print | Product List | Glossary Off
Versions: 1 2 3 4 5 6 7 8 9 10 11 12 13 14 15 16 17 18

000
FTUS43 KIWX 210258 AAA
TAFFWA
TAF AMD
KFWA 210258Z 2103/2124 12005KT 6SM BR SCT020 OVC035
      TEMPO 2104/2106 5SM -DZ BR OVC020
     FM210600 16004KT 3SM BR OVC015
     FM211400 17006KT 5SM BR OVC025
     FM211600 18010KT P6SM BKN030=

USA.gov is the U.S. government's official web portal to all federal, state and local government web resources and services.